Caramat, Canada
Current Conditions -  °F | °C
As of 10:00 PM on Friday 21 Nov 2014 (Local Time) from CYGQ Reporting Station
Light Snow Light Snow  
Wind Chill: 17°   Ceiling: 1800
Heat Index: 30°   Visibility: 3mi
Dew Point: 25°   Wind: 21mph
Humidity: 80%   Direction: 210°SSW
Pressure: 29.55"   Gusts: NA
Location:  49.62°N, 86.15°W
Report Text: CYGQ 220300Z 21018KT 3SM -SN DRSN OVC018 M01/M04 A2955 RMK SC8SLP032
Loading
Personal Weather Stations






























Interactive Weather Map New forecast layout! Learn more

10-Day Weather Forecast

Advertisements
Track Severe Weather on mobile